Time,TemperatureF,DewpointF,PressureIn,WindDirection,WindDirectionDegrees,WindSpeedMPH,WindSpeedGustMPH,Humidity,HourlyPrecipIn,Conditions,Clouds,dailyrainin,SoftwareType,DateUTC
2013-04-13 00:04:00,58.7,37.0,29.79,ENE,73,0.0,3.0,45,0.00,,,0.00,weatherlink.com 1.10,2013-04-13 04:04:00,
2013-04-13 00:19:00,59.2,37.0,29.79,ESE,110,2.0,6.0,44,0.00,,,0.00,weatherlink.com 1.10,2013-04-13 04:19:00,
2013-04-13 00:34:00,58.9,37.0,29.79,West,268,1.0,7.0,45,0.00,,,0.00,weatherlink.com 1.10,2013-04-13 04:34:00,
2013-04-13 00:49:00,57.8,37.0,29.79,West,268,0.0,2.0,46,0.00,,,0.00,weatherlink.com 1.10,2013-04-13 04:49:00,
2013-04-13 01:04:00,57.9,37.0,29.80,West,268,0.0,2.0,46,0.00,,,0.00,weatherlink.com 1.10,2013-04-13 05:04:00,
2013-04-13 01:19:00,56.1,37.0,29.80,ESE,114,1.0,4.0,49,0.00,,,0.00,weatherlink.com 1.10,2013-04-13 05:19:00,
2013-04-13 01:34:00,55.9,37.0,29.81,ESE,114,0.0,2.0,50,0.00,,,0.00,weatherlink.com 1.10,2013-04-13 05:34:00,
2013-04-13 01:49:00,54.2,37.0,29.81,ESE,114,0.0,3.0,53,0.00,,,0.00,weatherlink.com 1.10,2013-04-13 05:49:00,
2013-04-13 02:04:00,51.8,38.0,29.81,East,86,0.0,3.0,60,0.00,,,0.00,weatherlink.com 1.10,2013-04-13 06:04:00,
2013-04-13 02:19:00,51.0,38.0,29.81,East,86,0.0,3.0,62,0.00,,,0.00,weatherlink.com 1.10,2013-04-13 06:19:00,
2013-04-13 02:34:00,50.1,38.0,29.81,East,86,2.0,2.0,64,0.00,,,0.00,weatherlink.com 1.10,2013-04-13 06:34:00,
2013-04-13 02:49:00,49.6,39.0,29.82,East,86,1.0,1.0,68,0.00,,,0.00,weatherlink.com 1.10,2013-04-13 06:49:00,
2013-04-13 03:04:00,49.0,39.0,29.82,East,86,0.0,2.0,69,0.00,,,0.00,weatherlink.com 1.10,2013-04-13 07:04:00,
2013-04-13 03:19:00,48.5,39.0,29.82,East,86,0.0,2.0,70,0.00,,,0.00,weatherlink.com 1.10,2013-04-13 07:19:00,
2013-04-13 03:34:00,48.2,38.0,29.82,East,86,0.0,1.0,67,0.00,,,0.00,weatherlink.com 1.10,2013-04-13 07:34:00,
2013-04-13 03:49:00,49.1,38.0,29.82,East,86,0.0,3.0,67,0.00,,,0.00,weatherlink.com 1.10,2013-04-13 07:49:00,
2013-04-13 04:04:00,48.0,39.0,29.82,East,86,1.0,2.0,71,0.01,,,0.01,weatherlink.com 1.10,2013-04-13 08:04:00,
2013-04-13 04:19:00,47.6,39.0,29.83,East,86,1.0,2.0,71,0.01,,,0.01,weatherlink.com 1.10,2013-04-13 08:19:00,
2013-04-13 04:34:00,47.5,39.0,29.84,East,83,0.0,1.0,71,0.01,,,0.01,weatherlink.com 1.10,2013-04-13 08:34:00,
2013-04-13 04:49:00,46.9,39.0,29.84,East,83,0.0,1.0,74,0.01,,,0.01,weatherlink.com 1.10,2013-04-13 08:49:00,
2013-04-13 05:04:00,46.4,38.0,29.84,East,83,0.0,2.0,73,0.00,,,0.01,weatherlink.com 1.10,2013-04-13 09:04:00,
2013-04-13 05:19:00,45.8,38.0,29.85,East,83,0.0,2.0,75,0.00,,,0.01,weatherlink.com 1.10,2013-04-13 09:19:00,
2013-04-13 05:35:00,45.2,38.0,29.85,East,83,0.0,1.0,77,0.00,,,0.01,weatherlink.com 1.10,2013-04-13 09:35:00,
2013-04-13 06:05:00,45.1,38.0,29.86,East,83,0.0,1.0,76,0.00,,,0.01,weatherlink.com 1.10,2013-04-13 10:05:00,
2013-04-13 06:20:00,45.8,38.0,29.87,East,83,1.0,2.0,74,0.00,,,0.01,weatherlink.com 1.10,2013-04-13 10:20:00,
2013-04-13 06:35:00,45.3,38.0,29.87,East,83,0.0,1.0,76,0.00,,,0.01,weatherlink.com 1.10,2013-04-13 10:35:00,
2013-04-13 06:50:00,44.6,38.0,29.88,East,83,0.0,0.0,78,0.00,,,0.01,weatherlink.com 1.10,2013-04-13 10:50:00,
2013-04-13 07:05:00,43.9,38.0,29.89,East,83,0.0,2.0,80,0.00,,,0.01,weatherlink.com 1.10,2013-04-13 11:05:00,
2013-04-13 07:35:00,44.6,39.0,29.91,East,83,0.0,2.0,82,0.00,,,0.01,weatherlink.com 1.10,2013-04-13 11:35:00,
2013-04-13 07:50:00,45.1,40.0,29.91,East,83,0.0,2.0,81,0.00,,,0.01,weatherlink.com 1.10,2013-04-13 11:50:00,
2013-04-13 08:05:00,46.5,41.0,29.92,SE,132,0.0,3.0,81,0.00,,,0.01,weatherlink.com 1.10,2013-04-13 12:05:00,
2013-04-13 08:20:00,49.6,44.0,29.92,SE,140,0.0,1.0,82,0.00,,,0.01,weatherlink.com 1.10,2013-04-13 12:20:00,
2013-04-13 08:35:00,51.9,46.0,29.93,SE,140,0.0,2.0,79,0.00,,,0.01,weatherlink.com 1.10,2013-04-13 12:35:00,
2013-04-13 08:50:00,53.7,43.0,29.93,SE,140,0.0,1.0,68,0.00,,,0.01,weatherlink.com 1.10,2013-04-13 12:50:00,
2013-04-13 09:05:00,55.5,42.0,29.94,ESE,119,0.0,3.0,62,0.00,,,0.01,weatherlink.com 1.10,2013-04-13 13:05:00,
2013-04-13 09:35:00,58.3,43.0,29.95,East,91,0.0,2.0,57,0.00,,,0.01,weatherlink.com 1.10,2013-04-13 13:35:00,
2013-04-13 09:50:00,59.6,42.0,29.95,ESE,113,0.0,5.0,52,0.00,,,0.01,weatherlink.com 1.10,2013-04-13 13:50:00,
2013-04-13 10:05:00,60.0,42.0,29.95,West,277,1.0,3.0,51,0.00,,,0.01,weatherlink.com 1.10,2013-04-13 14:05:00,
2013-04-13 10:20:00,60.7,41.0,29.96,North,4,2.0,4.0,49,0.00,,,0.01,weatherlink.com 1.10,2013-04-13 14:20:00,
2013-04-13 10:35:00,61.2,41.0,29.96,NW,311,1.0,6.0,47,0.00,,,0.01,weatherlink.com 1.10,2013-04-13 14:35:00,
2013-04-13 10:50:00,61.8,41.0,29.96,NW,308,0.0,5.0,47,0.00,,,0.01,weatherlink.com 1.10,2013-04-13 14:50:00,
2013-04-13 11:05:00,62.3,41.0,29.96,NW,308,0.0,4.0,45,0.00,,,0.01,weatherlink.com 1.10,2013-04-13 15:05:00,
2013-04-13 11:35:00,63.9,41.0,29.96,WNW,293,2.0,7.0,43,0.00,,,0.01,weatherlink.com 1.10,2013-04-13 15:35:00,
2013-04-13 11:50:00,64.7,40.0,29.96,South,191,2.0,5.0,41,0.00,,,0.01,weatherlink.com 1.10,2013-04-13 15:50:00,
2013-04-13 12:06:00,65.7,41.0,29.96,West,269,1.0,8.0,40,0.00,,,0.01,weatherlink.com 1.10,2013-04-13 16:06:00,
2013-04-13 12:21:00,65.5,40.0,29.96,West,270,5.0,11.0,40,0.00,,,0.01,weatherlink.com 1.10,2013-04-13 16:21:00,
2013-04-13 12:36:00,67.0,40.0,29.95,SSW,201,4.0,5.0,38,0.01,,,0.02,weatherlink.com 1.10,2013-04-13 16:36:00,
2013-04-13 12:51:00,67.6,39.0,29.94,WNW,289,0.0,7.0,35,0.01,,,0.02,weatherlink.com 1.10,2013-04-13 16:51:00,
2013-04-13 13:06:00,69.6,40.0,29.93,South,174,2.0,6.0,34,0.01,,,0.02,weatherlink.com 1.10,2013-04-13 17:06:00,
2013-04-13 13:36:00,71.7,39.0,29.93,ESE,106,0.0,9.0,30,0.00,,,0.02,weatherlink.com 1.10,2013-04-13 17:36:00,
2013-04-13 14:21:00,73.8,36.0,29.91,NNE,17,2.0,5.0,25,0.00,,,0.02,weatherlink.com 1.10,2013-04-13 18:21:00,
2013-04-13 14:51:00,73.6,30.0,29.91,West,266,5.0,20.0,20,0.00,,,0.02,weatherlink.com 1.10,2013-04-13 18:51:00,
2013-04-13 15:06:00,74.6,32.0,29.90,WNW,290,14.0,18.0,21,0.00,,,0.02,weatherlink.com 1.10,2013-04-13 19:06:00,
2013-04-13 15:21:00,75.9,33.0,29.90,WNW,291,7.0,12.0,21,0.00,,,0.02,weatherlink.com 1.10,2013-04-13 19:21:00,
2013-04-13 15:36:00,75.9,32.0,29.90,WNW,301,11.0,18.0,20,0.00,,,0.02,weatherlink.com 1.10,2013-04-13 19:36:00,
2013-04-13 15:51:00,76.4,35.0,29.89,WNW,291,13.0,15.0,22,0.00,,,0.02,weatherlink.com 1.10,2013-04-13 19:51:00,
2013-04-13 16:06:00,76.6,33.0,29.89,WNW,292,7.0,17.0,20,0.00,,,0.02,weatherlink.com 1.10,2013-04-13 20:06:00,
2013-04-13 16:21:00,76.4,32.0,29.88,West,281,7.0,16.0,20,0.00,,,0.02,weatherlink.com 1.10,2013-04-13 20:21:00,
2013-04-13 16:36:00,76.1,33.0,29.88,NW,305,9.0,21.0,21,0.00,,,0.02,weatherlink.com 1.10,2013-04-13 20:36:00,
2013-04-13 16:51:00,77.2,35.0,29.88,WNW,299,8.0,14.0,22,0.00,,,0.02,weatherlink.com 1.10,2013-04-13 20:51:00,
2013-04-13 17:06:00,76.8,30.0,29.88,NNW,335,6.0,16.0,18,0.00,,,0.02,weatherlink.com 1.10,2013-04-13 21:06:00,
2013-04-13 17:21:00,77.1,32.0,29.88,WNW,295,9.0,18.0,19,0.00,,,0.02,weatherlink.com 1.10,2013-04-13 21:21:00,
2013-04-13 18:06:00,76.3,32.0,29.89,NW,326,5.0,13.0,20,0.00,,,0.02,weatherlink.com 1.10,2013-04-13 22:06:00,
2013-04-13 18:21:00,76.2,32.0,29.89,NE,42,3.0,13.0,20,0.00,,,0.02,weatherlink.com 1.10,2013-04-13 22:21:00,
2013-04-13 18:36:00,75.4,33.0,29.89,WNW,301,4.0,12.0,21,0.00,,,0.02,weatherlink.com 1.10,2013-04-13 22:36:00,
2013-04-13 18:51:00,75.3,34.0,29.90,NNW,341,3.0,11.0,22,0.00,,,0.02,weatherlink.com 1.10,2013-04-13 22:51:00,
2013-04-13 19:06:00,75.1,31.0,29.90,North,11,1.0,9.0,20,0.00,,,0.02,weatherlink.com 1.10,2013-04-13 23:06:00,
2013-04-13 19:21:00,74.4,32.0,29.90,NW,312,3.0,8.0,21,0.00,,,0.02,weatherlink.com 1.10,2013-04-13 23:21:00,
2013-04-13 19:36:00,73.5,31.0,29.91,North,354,1.0,6.0,21,0.00,,,0.02,weatherlink.com 1.10,2013-04-13 23:36:00,
2013-04-13 19:51:00,71.7,33.0,29.92,NNW,329,0.0,4.0,24,0.00,,,0.02,weatherlink.com 1.10,2013-04-13 23:51:00,
2013-04-13 20:06:00,69.4,32.0,29.93,WNW,299,7.0,8.0,25,0.00,,,0.02,weatherlink.com 1.10,2013-04-14 00:06:00,
2013-04-13 20:21:00,69.0,30.0,29.93,NW,323,3.0,9.0,23,0.00,,,0.02,weatherlink.com 1.10,2013-04-14 00:21:00,
2013-04-13 20:36:00,68.1,31.0,29.94,NNW,341,2.0,5.0,25,0.00,,,0.02,weatherlink.com 1.10,2013-04-14 00:36:00,
2013-04-13 20:51:00,67.1,30.0,29.94,NNW,339,4.0,7.0,25,0.00,,,0.02,weatherlink.com 1.10,2013-04-14 00:51:00,
2013-04-13 21:06:00,66.2,30.0,29.96,NE,35,0.0,3.0,26,0.00,,,0.02,weatherlink.com 1.10,2013-04-14 01:06:00,
2013-04-13 21:21:00,66.2,32.0,29.97,NE,36,1.0,3.0,28,0.00,,,0.02,weatherlink.com 1.10,2013-04-14 01:21:00,
2013-04-13 21:37:00,65.4,34.0,29.97,NE,36,0.0,1.0,31,0.00,,,0.02,weatherlink.com 1.10,2013-04-14 01:37:00,
2013-04-13 21:51:00,64.7,36.0,29.98,NE,36,0.0,1.0,34,0.00,,,0.02,weatherlink.com 1.10,2013-04-14 01:51:00,
2013-04-13 22:06:00,62.7,35.0,29.99,NE,36,0.0,3.0,36,0.00,,,0.02,weatherlink.com 1.10,2013-04-14 02:06:00,
2013-04-13 22:21:00,60.8,35.0,30.00,NE,36,1.0,3.0,39,0.00,,,0.02,weatherlink.com 1.10,2013-04-14 02:21:00,
2013-04-13 22:36:00,60.1,36.0,30.00,NE,50,1.0,5.0,40,0.01,,,0.03,weatherlink.com 1.10,2013-04-14 02:36:00,
2013-04-13 22:51:00,60.6,36.0,30.00,NE,50,0.0,2.0,40,0.01,,,0.03,weatherlink.com 1.10,2013-04-14 02:51:00,
2013-04-13 23:06:00,59.9,37.0,30.00,ENE,75,2.0,4.0,42,0.01,,,0.03,weatherlink.com 1.10,2013-04-14 03:06:00,
2013-04-13 23:22:00,59.6,37.0,30.00,NE,48,3.0,4.0,43,0.01,,,0.03,weatherlink.com 1.10,2013-04-14 03:22:00,
2013-04-13 23:37:00,58.5,38.0,30.00,East,87,1.0,5.0,46,0.00,,,0.03,weatherlink.com 1.10,2013-04-14 03:37:00,
2013-04-13 23:52:00,56.8,37.0,30.00,East,91,1.0,3.0,48,0.00,,,0.03,weatherlink.com 1.10,2013-04-14 03:52:00,